LGMT/MJT METAR and TAF weather

Enter ICAO airport designator
Station Type Date Time Source
LGMT METAR 2018/12/13 19:50 UTC NOAA

LGMT 131950Z 11010KT 050V150 9999 -RA FEW018 SCT020 07/03 Q1020


Station Type Date Time Source
LGMT Decoded METAR 2018/12/13 19:50 UTC NOAA

Mytilini Airport , Greece (LGMT) 39-04N 026-36E 5M
Dec 13, 2018 - 02:50 PM EST / 2018.12.13 1950 UTC
Wind: from the ESE (110 degrees) at 12 MPH (10 KT) (direction variable):0
Visibility: greater than 7 mile(s):0
Sky conditions: partly cloudy
Weather: light rain
Temperature: 44 F (7 C)
Dew Point: 37 F (3 C)
Relative Humidity: 75%
Pressure (altimeter): 30.12 in. Hg (1020 hPa)
ob: LGMT 131950Z 11010KT 050V150 9999 -RA FEW018 SCT020 07/03 Q1020
cycle: 20

Station Type Date Time Source
LGMT TAF 2012/09/21 03:06 UTC NOAA

TAF LGMT 210200Z 2103/2115 VRB05KT 9999 SCT020
BECMG 2103/2105 30015KT PROB30
TEMPO 2103/2106 7000 RA SCT018 BKN030
BECMG 2107/2109 29012KT


Example: see airport list